createdAt,value
2022-10-21T00:00:40.933Z,32.70
2022-10-21T00:04:04.036Z,31.80
2022-10-21T00:07:06.992Z,29.00
2022-10-21T00:10:10.395Z,29.00
2022-10-21T00:13:13.302Z,27.80
2022-10-21T00:16:18.642Z,25.10
2022-10-21T00:19:21.491Z,27.70
2022-10-21T00:22:24.508Z,27.20
2022-10-21T00:25:27.507Z,26.30
2022-10-21T00:28:30.838Z,29.60
2022-10-21T00:31:34.855Z,27.40
2022-10-21T00:34:37.777Z,23.70
2022-10-21T00:37:40.924Z,24.20
2022-10-21T00:40:43.940Z,25.50
2022-10-21T00:44:14.618Z,25.40
2022-10-21T00:47:22.204Z,24.40
2022-10-21T00:50:38.844Z,23.70
2022-10-21T00:53:48.062Z,26.30
2022-10-21T01:00:02.507Z,28.10
2022-10-21T01:03:05.496Z,29.70
2022-10-21T01:06:11.177Z,28.10
2022-10-21T01:09:15.048Z,28.00
2022-10-21T01:12:30.207Z,28.90
2022-10-21T01:15:42.430Z,28.90
2022-10-21T01:18:59.041Z,28.20
2022-10-21T01:22:04.948Z,27.00
2022-10-21T01:25:22.625Z,30.30
2022-10-21T01:28:31.211Z,27.40
2022-10-21T01:31:47.990Z,27.60
2022-10-21T01:35:13.815Z,27.10
2022-10-21T01:38:42.293Z,28.70
2022-10-21T01:42:00.562Z,27.40
2022-10-21T01:45:27.291Z,25.40
2022-10-21T01:48:38.291Z,27.90
2022-10-21T01:51:42.851Z,24.80
2022-10-21T01:54:52.983Z,25.40
2022-10-21T01:58:03.855Z,24.00
2022-10-21T02:01:10.446Z,25.60
2022-10-21T02:04:16.205Z,27.60
2022-10-21T02:07:21.439Z,27.30
2022-10-21T02:10:28.258Z,25.60
2022-10-21T02:13:36.179Z,25.10
2022-10-21T02:16:41.549Z,25.60
2022-10-21T02:19:44.592Z,23.30
2022-10-21T02:22:49.235Z,26.40
2022-10-21T02:25:52.632Z,26.20
2022-10-21T02:28:58.238Z,27.90
2022-10-21T02:32:23.248Z,25.00
2022-10-21T02:35:46.396Z,29.70
2022-10-21T02:38:54.133Z,25.90
2022-10-21T02:42:00.358Z,29.60
2022-10-21T02:45:04.737Z,30.60
2022-10-21T02:48:07.834Z,27.20
2022-10-21T02:51:11.409Z,25.90
2022-10-21T02:54:20.692Z,27.20
2022-10-21T02:57:23.643Z,28.90
2022-10-21T03:00:30.738Z,31.30
2022-10-21T03:03:35.790Z,28.20
2022-10-21T03:06:38.743Z,28.20
2022-10-21T03:09:41.809Z,27.00
2022-10-21T03:12:44.760Z,30.40
2022-10-21T03:15:49.115Z,30.70
2022-10-21T03:18:52.036Z,28.90
2022-10-21T03:21:54.965Z,31.00
2022-10-21T03:24:57.949Z,29.50
2022-10-21T03:28:00.974Z,28.30
2022-10-21T03:31:03.981Z,27.50
2022-10-21T03:34:06.956Z,27.10
2022-10-21T03:37:10.018Z,25.80
2022-10-21T03:40:13.061Z,26.80
2022-10-21T03:43:16.008Z,26.80
2022-10-21T03:46:19.048Z,27.40
2022-10-21T03:49:22.073Z,30.30
2022-10-21T03:52:25.111Z,32.40
2022-10-21T03:55:28.019Z,31.10
2022-10-21T03:58:31.108Z,28.80
2022-10-21T04:01:34.189Z,29.10
2022-10-21T04:04:37.340Z,31.40
2022-10-21T04:07:40.600Z,28.00
2022-10-21T04:10:45.883Z,30.50
2022-10-21T04:13:49.370Z,32.00
2022-10-21T04:17:02.105Z,32.20
2022-10-21T04:20:06.225Z,31.30
2022-10-21T04:23:09.126Z,34.20
2022-10-21T04:26:12.214Z,29.60
2022-10-21T04:29:15.105Z,30.30
2022-10-21T04:32:18.175Z,33.20
2022-10-21T04:35:21.120Z,33.90
2022-10-21T04:38:27.189Z,29.50
2022-10-21T04:41:30.342Z,35.70
2022-10-21T04:44:33.354Z,33.00
2022-10-21T04:47:36.566Z,31.10
2022-10-21T04:50:39.838Z,31.90
2022-10-21T04:53:42.877Z,35.90
2022-10-21T04:56:45.780Z,36.10
2022-10-21T04:59:48.775Z,35.70
2022-10-21T05:02:51.693Z,43.50
2022-10-21T05:05:54.667Z,41.40
2022-10-21T05:08:57.755Z,43.70
2022-10-21T05:12:00.896Z,44.00
2022-10-21T05:15:04.326Z,40.90
2022-10-21T05:18:07.350Z,45.50
2022-10-21T05:21:10.361Z,42.00
2022-10-21T05:24:14.828Z,42.10
2022-10-21T05:27:17.808Z,39.50
2022-10-21T05:30:21.278Z,43.30
2022-10-21T05:33:24.862Z,38.70
2022-10-21T05:36:27.869Z,39.00
2022-10-21T05:39:30.858Z,39.20
2022-10-21T05:42:34.078Z,41.40
2022-10-21T05:45:37.020Z,41.00
2022-10-21T05:48:40.273Z,44.00
2022-10-21T05:51:44.819Z,44.20
2022-10-21T05:54:47.796Z,38.90
2022-10-21T06:00:55.408Z,44.90
2022-10-21T06:03:58.482Z,48.00
2022-10-21T06:07:01.503Z,44.70
2022-10-21T06:10:04.677Z,46.20
2022-10-21T06:13:07.637Z,46.90
2022-10-21T06:16:12.352Z,44.40
2022-10-21T06:19:15.361Z,45.60
2022-10-21T06:22:18.495Z,47.70
2022-10-21T06:25:21.828Z,45.70
2022-10-21T06:28:25.429Z,47.00
2022-10-21T06:31:29.036Z,44.90
2022-10-21T06:34:32.049Z,42.20
2022-10-21T06:37:35.051Z,44.70
2022-10-21T06:40:38.463Z,42.00
2022-10-21T06:43:42.925Z,41.30
2022-10-21T06:46:46.247Z,50.90
2022-10-21T06:49:49.194Z,49.40
2022-10-21T06:52:52.080Z,52.40
2022-10-21T06:56:09.235Z,50.70
2022-10-21T06:59:12.164Z,45.10
2022-10-21T07:02:15.091Z,46.10
2022-10-21T07:05:18.195Z,46.40
2022-10-21T07:08:22.509Z,45.90
2022-10-21T07:11:32.869Z,49.60
2022-10-21T07:14:35.789Z,42.00
2022-10-21T07:17:38.804Z,46.60
2022-10-21T07:20:41.925Z,38.90
2022-10-21T07:23:46.278Z,35.80
2022-10-21T07:26:49.686Z,32.20
2022-10-21T07:29:52.561Z,34.00
2022-10-21T07:32:55.494Z,30.10
2022-10-21T07:36:07.670Z,32.30
2022-10-21T07:39:17.427Z,40.00
2022-10-21T07:42:21.506Z,46.10
2022-10-21T07:45:24.485Z,48.00
2022-10-21T07:48:27.355Z,44.80
2022-10-21T07:51:31.502Z,44.90
2022-10-21T07:54:37.387Z,47.70
2022-10-21T07:57:41.103Z,48.00
2022-10-21T08:00:44.666Z,47.70
2022-10-21T08:03:48.686Z,51.20
2022-10-21T08:06:51.657Z,46.90
2022-10-21T08:09:54.532Z,48.70
2022-10-21T08:12:57.392Z,49.30
2022-10-21T08:16:01.076Z,42.40
2022-10-21T08:19:06.076Z,41.10
2022-10-21T08:22:09.623Z,42.70
2022-10-21T08:25:16.745Z,40.20
2022-10-21T08:28:20.982Z,42.90
2022-10-21T08:31:24.042Z,42.70
2022-10-21T08:34:26.942Z,41.30
2022-10-21T08:37:29.836Z,38.50
2022-10-21T08:40:44.395Z,38.70
2022-10-21T08:43:47.489Z,39.20
2022-10-21T08:46:58.085Z,36.50
2022-10-21T08:50:12.756Z,34.30
2022-10-21T08:53:23.250Z,28.50
2022-10-21T08:56:26.300Z,27.50
2022-10-21T08:59:29.197Z,22.40
2022-10-21T09:02:34.829Z,23.80
2022-10-21T09:06:08.881Z,25.10
2022-10-21T09:09:44.325Z,29.70
2022-10-21T09:13:13.274Z,35.10
2022-10-21T09:17:12.194Z,37.60
2022-10-21T09:20:51.086Z,32.70
2022-10-21T09:24:36.256Z,32.30
2022-10-21T09:27:54.981Z,28.80
2022-10-21T09:31:02.695Z,20.40
2022-10-21T09:34:15.204Z,24.90
2022-10-21T09:37:31.689Z,20.40
2022-10-21T09:40:37.854Z,18.60
2022-10-21T09:43:40.798Z,18.90
2022-10-21T09:46:47.707Z,21.20
2022-10-21T09:50:07.328Z,19.10
2022-10-21T09:53:20.367Z,19.00
2022-10-21T09:56:30.088Z,21.60
2022-10-21T09:59:33.651Z,21.20
2022-10-21T10:02:40.059Z,30.80
2022-10-21T10:05:49.284Z,30.10
2022-10-21T10:08:52.419Z,29.60
2022-10-21T10:11:58.392Z,28.60
2022-10-21T10:15:39.386Z,23.40
2022-10-21T10:18:44.415Z,25.00
2022-10-21T10:22:10.223Z,23.50
2022-10-21T10:25:13.699Z,25.70
2022-10-21T10:28:24.001Z,27.70
2022-10-21T10:31:34.052Z,40.70
2022-10-21T10:34:48.147Z,41.70
2022-10-21T10:37:53.057Z,78.30
2022-10-21T10:41:05.720Z,45.00
2022-10-21T10:44:18.404Z,28.90
2022-10-21T10:47:26.673Z,25.80
2022-10-21T10:50:43.043Z,25.00
2022-10-21T10:53:45.936Z,22.50
2022-10-21T10:57:03.457Z,18.40
2022-10-21T11:00:14.286Z,18.70
2022-10-21T11:03:29.841Z,19.90
2022-10-21T11:06:43.647Z,23.70
2022-10-21T11:09:49.275Z,19.50
2022-10-21T11:12:52.979Z,20.30
2022-10-21T11:16:14.474Z,22.50
2022-10-21T11:19:34.702Z,21.40
2022-10-21T11:23:02.002Z,21.60
2022-10-21T11:26:27.558Z,21.60
2022-10-21T11:29:46.135Z,21.30
2022-10-21T11:32:58.180Z,26.10
2022-10-21T11:36:11.826Z,26.10
2022-10-21T11:39:30.906Z,27.40
2022-10-21T11:42:43.791Z,26.60
2022-10-21T11:46:01.980Z,29.30
2022-10-21T11:49:22.942Z,31.40
2022-10-21T11:52:37.205Z,25.70
2022-10-21T11:56:00.608Z,26.60
2022-10-21T11:59:18.684Z,23.50
2022-10-21T12:02:25.036Z,24.70
2022-10-21T12:05:36.958Z,26.20
2022-10-21T12:08:51.638Z,26.50
2022-10-21T12:12:00.579Z,23.30
2022-10-21T12:15:14.668Z,25.40
2022-10-21T12:18:22.152Z,25.10
2022-10-21T12:21:28.767Z,29.10
2022-10-21T12:24:34.655Z,37.30
2022-10-21T12:27:58.967Z,40.40
2022-10-21T12:31:17.814Z,34.50
2022-10-21T12:34:21.767Z,37.00
2022-10-21T12:37:57.127Z,32.80
2022-10-21T12:41:21.593Z,29.30
2022-10-21T12:44:27.471Z,32.50
2022-10-21T12:47:40.298Z,31.10
2022-10-21T12:50:45.102Z,35.80
2022-10-21T12:53:52.825Z,31.40
2022-10-21T12:57:04.777Z,28.80
2022-10-21T13:03:41.006Z,33.20
2022-10-21T13:06:56.461Z,35.40
2022-10-21T13:09:59.211Z,34.00
2022-10-21T13:13:30.517Z,36.70
2022-10-21T13:16:40.838Z,37.10
2022-10-21T13:19:43.849Z,31.20
2022-10-21T13:23:02.050Z,32.40
2022-10-21T13:26:19.630Z,32.30
2022-10-21T13:29:29.567Z,33.40
2022-10-21T13:32:37.635Z,33.90
2022-10-21T13:35:46.460Z,34.30
2022-10-21T13:38:52.482Z,34.50
2022-10-21T13:41:58.920Z,33.20
2022-10-21T13:45:08.224Z,40.20
2022-10-21T13:48:18.260Z,35.90
2022-10-21T13:51:27.152Z,33.30
2022-10-21T13:54:35.501Z,34.00
2022-10-21T13:57:38.730Z,36.40
2022-10-21T14:00:41.988Z,39.20
2022-10-21T14:03:45.357Z,40.00
2022-10-21T14:06:57.030Z,40.30
2022-10-21T14:10:00.121Z,35.20
2022-10-21T14:13:04.513Z,39.60
2022-10-21T14:16:08.885Z,36.00
2022-10-21T14:19:21.868Z,32.50
2022-10-21T14:22:26.883Z,26.90
2022-10-21T14:25:32.628Z,25.80
2022-10-21T14:28:37.302Z,28.00
2022-10-21T14:31:44.223Z,23.60
2022-10-21T14:34:58.368Z,21.00
2022-10-21T14:38:03.690Z,20.00
2022-10-21T14:41:11.326Z,19.10
2022-10-21T14:44:19.644Z,17.70
2022-10-21T14:47:25.481Z,18.80
2022-10-21T14:50:28.432Z,17.40
2022-10-21T14:53:35.678Z,18.60
2022-10-21T14:56:42.858Z,19.50
2022-10-21T14:59:50.330Z,21.20
2022-10-21T15:02:54.369Z,17.30
2022-10-21T15:06:25.227Z,18.70
2022-10-21T15:09:28.873Z,17.60
2022-10-21T15:12:50.499Z,18.30
2022-10-21T15:15:55.998Z,19.40
2022-10-21T15:18:59.473Z,19.20
2022-10-21T15:22:04.230Z,19.30
2022-10-21T15:25:16.913Z,13.90
2022-10-21T15:28:20.529Z,16.40
2022-10-21T15:31:26.947Z,12.90
2022-10-21T15:34:32.536Z,12.60
2022-10-21T15:37:35.657Z,14.10
2022-10-21T15:40:38.508Z,16.70
2022-10-21T15:43:43.014Z,14.10
2022-10-21T15:46:47.351Z,11.90
2022-10-21T15:49:50.775Z,13.60
2022-10-21T15:55:56.790Z,14.90
2022-10-21T15:58:59.659Z,9.70
2022-10-21T16:02:02.630Z,12.80
2022-10-21T16:05:05.755Z,13.40
2022-10-21T16:08:12.374Z,15.70
2022-10-21T16:11:29.658Z,17.00
2022-10-21T16:14:42.831Z,15.20
2022-10-21T16:17:49.488Z,16.00
2022-10-21T16:20:54.001Z,14.80
2022-10-21T16:23:58.456Z,14.40
2022-10-21T16:27:01.402Z,14.40
2022-10-21T16:30:24.950Z,16.10
2022-10-21T16:33:27.896Z,12.50
2022-10-21T16:36:36.682Z,14.90
2022-10-21T16:39:39.525Z,13.40
2022-10-21T16:42:42.532Z,14.90
2022-10-21T16:45:45.682Z,15.50
2022-10-21T16:48:48.709Z,19.10
2022-10-21T16:51:57.449Z,18.60
2022-10-21T16:55:00.359Z,21.10
2022-10-21T16:58:03.367Z,19.00
2022-10-21T17:01:08.417Z,19.30
2022-10-21T17:04:14.249Z,13.20
2022-10-21T17:07:17.330Z,16.50
2022-10-21T17:10:20.551Z,14.20
2022-10-21T17:13:23.413Z,14.20
2022-10-21T17:16:26.358Z,14.90
2022-10-21T17:19:29.330Z,15.20
2022-10-21T17:22:32.461Z,13.30
2022-10-21T17:25:35.895Z,13.40
2022-10-21T17:28:38.765Z,16.10
2022-10-21T17:31:43.566Z,14.70
2022-10-21T17:34:46.505Z,13.50
2022-10-21T17:37:50.401Z,15.40
2022-10-21T17:40:53.971Z,15.30
2022-10-21T17:43:57.237Z,14.50
2022-10-21T17:47:00.295Z,15.00
2022-10-21T17:50:03.664Z,11.10
2022-10-21T17:53:07.095Z,13.20
2022-10-21T17:56:11.301Z,13.90
2022-10-21T17:59:14.156Z,12.80
2022-10-21T18:02:17.036Z,12.70
2022-10-21T18:05:20.090Z,11.50
2022-10-21T18:08:24.141Z,16.00
2022-10-21T18:11:26.968Z,11.90
2022-10-21T18:14:29.894Z,12.30
2022-10-21T18:17:33.973Z,16.30
2022-10-21T18:20:36.884Z,12.90
2022-10-21T18:23:43.248Z,15.60
2022-10-21T18:26:46.125Z,15.10
2022-10-21T18:29:49.206Z,15.10
2022-10-21T18:32:52.106Z,15.60
2022-10-21T18:35:54.951Z,14.00
2022-10-21T18:39:01.545Z,13.50
2022-10-21T18:42:07.255Z,14.10
2022-10-21T18:45:10.395Z,16.20
2022-10-21T18:48:13.340Z,17.20
2022-10-21T18:51:17.926Z,13.90
2022-10-21T18:54:20.913Z,15.30
2022-10-21T18:57:24.021Z,15.40
2022-10-21T19:00:27.682Z,19.30
2022-10-21T19:03:30.847Z,17.90
2022-10-21T19:06:43.801Z,21.90
2022-10-21T19:09:47.283Z,20.30
2022-10-21T19:12:52.455Z,20.50
2022-10-21T19:19:14.212Z,22.10
2022-10-21T19:22:18.410Z,19.30
2022-10-21T19:25:23.724Z,22.20
2022-10-21T19:28:26.633Z,22.90
2022-10-21T19:31:31.444Z,21.60
2022-10-21T19:34:36.606Z,23.10
2022-10-21T19:37:40.158Z,23.20
2022-10-21T19:40:43.175Z,21.90
2022-10-21T19:44:00.440Z,23.10
2022-10-21T19:47:03.358Z,22.00
2022-10-21T19:50:07.035Z,23.30
2022-10-21T19:53:09.983Z,20.80
2022-10-21T19:56:14.168Z,19.00
2022-10-21T20:02:20.839Z,20.30
2022-10-21T20:05:23.863Z,21.10
2022-10-21T20:11:35.040Z,20.20
2022-10-21T20:14:38.217Z,19.80
2022-10-21T20:17:41.468Z,20.20
2022-10-21T20:20:44.513Z,20.70
2022-10-21T20:23:51.756Z,21.30
2022-10-21T20:26:58.369Z,19.10
2022-10-21T20:30:04.970Z,20.60
2022-10-21T20:33:10.492Z,19.60
2022-10-21T20:36:34.055Z,23.00
2022-10-21T20:39:37.291Z,14.80
2022-10-21T20:42:40.500Z,17.80
2022-10-21T20:45:43.876Z,16.20
2022-10-21T20:48:49.250Z,15.20
2022-10-21T20:51:52.149Z,14.50
2022-10-21T20:58:13.468Z,12.80
2022-10-21T21:01:20.325Z,15.20
2022-10-21T21:04:25.379Z,15.40
2022-10-21T21:07:28.292Z,12.60
2022-10-21T21:10:34.919Z,13.20
2022-10-21T21:13:41.997Z,15.90
2022-10-21T21:16:47.463Z,12.30
2022-10-21T21:19:50.537Z,13.10
2022-10-21T21:22:53.430Z,11.90
2022-10-21T21:26:26.971Z,13.70
2022-10-21T21:29:31.906Z,10.50
2022-10-21T21:32:34.977Z,13.00
2022-10-21T21:35:38.101Z,14.00
2022-10-21T21:38:41.924Z,12.80
2022-10-21T21:41:44.833Z,12.20
2022-10-21T21:44:47.782Z,11.30
2022-10-21T21:47:50.652Z,10.70
2022-10-21T21:51:09.684Z,13.60
2022-10-21T21:54:12.601Z,11.90
2022-10-21T21:57:27.381Z,9.80
2022-10-21T22:00:31.638Z,10.40
2022-10-21T22:03:34.567Z,10.50
2022-10-21T22:06:38.535Z,11.30
2022-10-21T22:09:41.493Z,12.80
2022-10-21T22:12:44.979Z,13.50
2022-10-21T22:15:48.604Z,12.50
2022-10-21T22:18:51.914Z,12.90
2022-10-21T22:21:54.838Z,12.50
2022-10-21T22:24:57.636Z,11.10
2022-10-21T22:28:00.470Z,10.40
2022-10-21T22:31:07.083Z,13.20
2022-10-21T22:34:11.894Z,11.20
2022-10-21T22:37:15.054Z,11.20
2022-10-21T22:40:17.945Z,11.40
2022-10-21T22:43:20.961Z,10.40
2022-10-21T22:46:39.403Z,10.40
2022-10-21T22:49:43.729Z,10.90
2022-10-21T22:52:47.255Z,12.40
2022-10-21T22:55:50.434Z,11.00
2022-10-21T22:58:53.973Z,12.60
2022-10-21T23:01:56.819Z,11.20
2022-10-21T23:04:59.867Z,10.10
2022-10-21T23:08:02.762Z,11.60
2022-10-21T23:11:05.788Z,11.20
2022-10-21T23:14:09.601Z,10.10
2022-10-21T23:17:12.497Z,12.40
2022-10-21T23:20:15.475Z,10.80
2022-10-21T23:23:18.415Z,15.10
2022-10-21T23:26:21.540Z,11.10
2022-10-21T23:29:24.439Z,12.00
2022-10-21T23:32:29.511Z,9.60
2022-10-21T23:35:32.824Z,9.60
2022-10-21T23:38:35.694Z,11.70
2022-10-21T23:41:38.551Z,10.60
2022-10-21T23:44:41.585Z,10.50
2022-10-21T23:47:44.590Z,10.60
2022-10-21T23:50:47.612Z,13.40
2022-10-21T23:53:50.562Z,9.80
2022-10-21T23:56:53.467Z,11.20
2022-10-21T23:59:56.400Z,13.20
